sensor_id;sensor_type;location;lat;lon;timestamp;P1;durP1;ratioP1;P2;durP2;ratioP2
9324;SDS011;4701;51.566;6.776;2022-07-09T05:03:14;12.10;;;10.30;;
9324;SDS011;4701;51.566;6.776;2022-07-09T05:05:16;17.30;;;15.50;;
9324;SDS011;4701;51.566;6.776;2022-07-09T05:07:22;21.77;;;17.63;;
9324;SDS011;4701;51.566;6.776;2022-07-09T05:09:24;21.40;;;18.83;;
9324;SDS011;4701;51.566;6.776;2022-07-09T05:11:26;25.00;;;20.20;;
9324;SDS011;4701;51.566;6.776;2022-07-09T05:13:28;14.80;;;13.07;;
9324;SDS011;4701;51.566;6.776;2022-07-09T05:15:30;15.57;;;13.97;;
9324;SDS011;4701;51.566;6.776;2022-07-09T05:17:33;24.77;;;19.00;;
9324;SDS011;4701;51.566;6.776;2022-07-09T05:19:37;15.17;;;13.37;;
9324;SDS011;4701;51.566;6.776;2022-07-09T05:21:39;14.77;;;13.17;;
9324;SDS011;4701;51.566;6.776;2022-07-09T05:23:41;16.13;;;14.43;;
9324;SDS011;4701;51.566;6.776;2022-07-09T05:25:42;18.20;;;14.33;;
9324;SDS011;4701;51.566;6.776;2022-07-09T05:27:45;16.37;;;14.67;;
9324;SDS011;4701;51.566;6.776;2022-07-09T05:29:48;18.93;;;16.63;;
9324;SDS011;4701;51.566;6.776;2022-07-09T05:31:50;17.00;;;15.10;;
9324;SDS011;4701;51.566;6.776;2022-07-09T05:33:52;16.40;;;14.83;;
9324;SDS011;4701;51.566;6.776;2022-07-09T05:35:55;21.67;;;18.17;;
9324;SDS011;4701;51.566;6.776;2022-07-09T05:37:57;23.17;;;19.10;;
9324;SDS011;4701;51.566;6.776;2022-07-09T05:39:59;22.80;;;17.53;;
9324;SDS011;4701;51.566;6.776;2022-07-09T05:42:05;20.63;;;17.83;;
9324;SDS011;4701;51.566;6.776;2022-07-09T05:44:08;21.93;;;18.87;;
9324;SDS011;4701;51.566;6.776;2022-07-09T05:46:10;25.63;;;20.60;;
9324;SDS011;4701;51.566;6.776;2022-07-09T05:48:11;24.20;;;19.10;;
9324;SDS011;4701;51.566;6.776;2022-07-09T05:50:13;24.67;;;19.53;;
9324;SDS011;4701;51.566;6.776;2022-07-09T05:52:16;26.83;;;19.70;;
9324;SDS011;4701;51.566;6.776;2022-07-09T05:54:18;25.90;;;20.23;;
9324;SDS011;4701;51.566;6.776;2022-07-09T05:56:20;30.07;;;19.37;;
9324;SDS011;4701;51.566;6.776;2022-07-09T05:58:22;23.70;;;18.57;;
9324;SDS011;4701;51.566;6.776;2022-07-09T06:00:24;26.83;;;19.27;;
9324;SDS011;4701;51.566;6.776;2022-07-09T06:02:26;22.77;;;19.73;;
9324;SDS011;4701;51.566;6.776;2022-07-09T06:04:28;21.77;;;17.43;;
9324;SDS011;4701;51.566;6.776;2022-07-09T06:06:30;29.00;;;19.30;;
9324;SDS011;4701;51.566;6.776;2022-07-09T06:08:34;25.27;;;18.57;;
9324;SDS011;4701;51.566;6.776;2022-07-09T06:10:36;25.20;;;18.80;;
9324;SDS011;4701;51.566;6.776;2022-07-09T06:12:38;28.47;;;18.40;;
9324;SDS011;4701;51.566;6.776;2022-07-09T06:14:40;24.10;;;17.73;;
9324;SDS011;4701;51.566;6.776;2022-07-09T06:16:42;25.07;;;17.73;;
9324;SDS011;4701;51.566;6.776;2022-07-09T06:18:47;20.77;;;17.40;;
9324;SDS011;4701;51.566;6.776;2022-07-09T06:20:49;21.03;;;17.03;;
9324;SDS011;4701;51.566;6.776;2022-07-09T06:22:51;25.73;;;18.07;;
9324;SDS011;4701;51.566;6.776;2022-07-09T06:24:54;24.57;;;17.50;;
9324;SDS011;4701;51.566;6.776;2022-07-09T06:26:56;22.10;;;16.17;;
9324;SDS011;4701;51.566;6.776;2022-07-09T06:28:58;20.20;;;14.30;;
9324;SDS011;4701;51.566;6.776;2022-07-09T06:31:01;19.63;;;14.60;;
9324;SDS011;4701;51.566;6.776;2022-07-09T06:33:03;20.53;;;15.83;;
9324;SDS011;4701;51.566;6.776;2022-07-09T06:35:05;16.17;;;12.30;;
9324;SDS011;4701;51.566;6.776;2022-07-09T06:37:10;16.63;;;10.83;;
9324;SDS011;4701;51.566;6.776;2022-07-09T06:39:12;16.70;;;10.47;;
9324;SDS011;4701;51.566;6.776;2022-07-09T06:41:33;16.77;;;11.73;;
9324;SDS011;4701;51.566;6.776;2022-07-09T06:43:35;15.30;;;12.53;;
9324;SDS011;4701;51.566;6.776;2022-07-09T06:45:37;13.47;;;10.47;;
9324;SDS011;4701;51.566;6.776;2022-07-09T06:47:39;17.70;;;11.23;;
9324;SDS011;4701;51.566;6.776;2022-07-09T06:49:41;20.20;;;14.57;;
9324;SDS011;4701;51.566;6.776;2022-07-09T06:51:43;22.90;;;13.87;;
9324;SDS011;4701;51.566;6.776;2022-07-09T06:53:45;20.70;;;15.33;;
9324;SDS011;4701;51.566;6.776;2022-07-09T06:55:47;26.50;;;22.17;;
9324;SDS011;4701;51.566;6.776;2022-07-09T06:57:51;20.17;;;15.50;;
9324;SDS011;4701;51.566;6.776;2022-07-09T06:59:52;22.17;;;17.47;;
9324;SDS011;4701;51.566;6.776;2022-07-09T07:01:54;16.00;;;12.23;;
9324;SDS011;4701;51.566;6.776;2022-07-09T07:03:56;17.27;;;12.17;;
9324;SDS011;4701;51.566;6.776;2022-07-09T07:05:58;17.13;;;12.73;;
9324;SDS011;4701;51.566;6.776;2022-07-09T07:08:00;15.53;;;11.80;;
9324;SDS011;4701;51.566;6.776;2022-07-09T07:10:02;19.63;;;15.10;;
9324;SDS011;4701;51.566;6.776;2022-07-09T07:12:05;16.60;;;12.53;;
9324;SDS011;4701;51.566;6.776;2022-07-09T07:14:09;22.40;;;14.30;;
9324;SDS011;4701;51.566;6.776;2022-07-09T07:16:11;19.17;;;12.77;;
9324;SDS011;4701;51.566;6.776;2022-07-09T07:18:13;20.60;;;13.40;;
9324;SDS011;4701;51.566;6.776;2022-07-09T07:20:15;17.97;;;12.70;;
9324;SDS011;4701;51.566;6.776;2022-07-09T07:22:19;15.93;;;10.40;;
9324;SDS011;4701;51.566;6.776;2022-07-09T07:24:21;11.37;;;8.83;;
9324;SDS011;4701;51.566;6.776;2022-07-09T07:26:23;14.90;;;9.37;;
9324;SDS011;4701;51.566;6.776;2022-07-09T07:28:25;19.47;;;12.50;;
9324;SDS011;4701;51.566;6.776;2022-07-09T07:30:29;16.77;;;11.77;;
9324;SDS011;4701;51.566;6.776;2022-07-09T07:32:33;13.47;;;10.57;;
9324;SDS011;4701;51.566;6.776;2022-07-09T07:34:35;24.80;;;12.23;;
9324;SDS011;4701;51.566;6.776;2022-07-09T07:36:37;18.00;;;11.20;;
9324;SDS011;4701;51.566;6.776;2022-07-09T07:38:38;12.47;;;8.97;;
9324;SDS011;4701;51.566;6.776;2022-07-09T07:40:40;11.90;;;8.23;;
9324;SDS011;4701;51.566;6.776;2022-07-09T07:42:43;10.07;;;7.83;;
9324;SDS011;4701;51.566;6.776;2022-07-09T07:44:45;11.07;;;7.77;;
9324;SDS011;4701;51.566;6.776;2022-07-09T07:46:48;14.00;;;7.97;;
9324;SDS011;4701;51.566;6.776;2022-07-09T07:48:50;10.53;;;6.43;;
9324;SDS011;4701;51.566;6.776;2022-07-09T07:50:52;8.67;;;6.37;;
9324;SDS011;4701;51.566;6.776;2022-07-09T07:52:53;6.00;;;5.07;;
9324;SDS011;4701;51.566;6.776;2022-07-09T07:54:55;6.77;;;5.20;;
9324;SDS011;4701;51.566;6.776;2022-07-09T07:56:57;8.50;;;4.80;;
9324;SDS011;4701;51.566;6.776;2022-07-09T07:58:59;5.87;;;5.30;;
9324;SDS011;4701;51.566;6.776;2022-07-09T08:01:02;8.83;;;5.60;;
9324;SDS011;4701;51.566;6.776;2022-07-09T08:03:05;7.20;;;5.37;;
9324;SDS011;4701;51.566;6.776;2022-07-09T08:05:08;7.27;;;5.10;;
9324;SDS011;4701;51.566;6.776;2022-07-09T08:07:12;7.17;;;4.60;;
9324;SDS011;4701;51.566;6.776;2022-07-09T08:09:14;8.77;;;6.00;;
9324;SDS011;4701;51.566;6.776;2022-07-09T08:11:17;6.17;;;4.90;;
9324;SDS011;4701;51.566;6.776;2022-07-09T08:13:18;9.70;;;4.83;;
9324;SDS011;4701;51.566;6.776;2022-07-09T08:15:22;6.53;;;4.87;;
9324;SDS011;4701;51.566;6.776;2022-07-09T08:17:23;4.07;;;3.40;;
9324;SDS011;4701;51.566;6.776;2022-07-09T08:19:27;5.23;;;3.80;;
9324;SDS011;4701;51.566;6.776;2022-07-09T08:21:29;7.07;;;4.53;;
9324;SDS011;4701;51.566;6.776;2022-07-09T08:23:31;6.50;;;3.80;;
9324;SDS011;4701;51.566;6.776;2022-07-09T08:25:51;5.87;;;3.70;;
9324;SDS011;4701;51.566;6.776;2022-07-09T08:27:53;3.30;;;2.77;;
9324;SDS011;4701;51.566;6.776;2022-07-09T08:29:54;7.23;;;4.30;;
9324;SDS011;4701;51.566;6.776;2022-07-09T08:31:56;5.97;;;4.00;;
9324;SDS011;4701;51.566;6.776;2022-07-09T08:33:58;6.00;;;4.00;;
9324;SDS011;4701;51.566;6.776;2022-07-09T08:36:01;6.10;;;4.23;;
9324;SDS011;4701;51.566;6.776;2022-07-09T08:38:03;4.17;;;3.67;;
9324;SDS011;4701;51.566;6.776;2022-07-09T08:40:06;5.17;;;3.73;;
9324;SDS011;4701;51.566;6.776;2022-07-09T08:42:09;6.23;;;3.07;;
9324;SDS011;4701;51.566;6.776;2022-07-09T08:44:11;5.63;;;3.20;;
9324;SDS011;4701;51.566;6.776;2022-07-09T08:46:13;4.60;;;3.13;;
9324;SDS011;4701;51.566;6.776;2022-07-09T08:48:15;3.87;;;2.90;;
9324;SDS011;4701;51.566;6.776;2022-07-09T08:50:16;5.20;;;3.17;;
9324;SDS011;4701;51.566;6.776;2022-07-09T08:52:21;5.37;;;2.40;;
9324;SDS011;4701;51.566;6.776;2022-07-09T08:54:26;6.00;;;2.27;;
9324;SDS011;4701;51.566;6.776;2022-07-09T08:56:29;3.87;;;2.10;;
9324;SDS011;4701;51.566;6.776;2022-07-09T08:58:31;2.60;;;2.20;;
9324;SDS011;4701;51.566;6.776;2022-07-09T09:00:33;3.33;;;2.33;;
9324;SDS011;4701;51.566;6.776;2022-07-09T09:02:37;6.00;;;2.80;;
9324;SDS011;4701;51.566;6.776;2022-07-09T09:04:39;4.57;;;3.03;;
9324;SDS011;4701;51.566;6.776;2022-07-09T09:06:41;2.93;;;2.20;;
9324;SDS011;4701;51.566;6.776;2022-07-09T09:08:44;4.00;;;2.00;;
9324;SDS011;4701;51.566;6.776;2022-07-09T09:10:46;13.03;;;3.17;;
9324;SDS011;4701;51.566;6.776;2022-07-09T09:12:48;3.87;;;1.80;;
9324;SDS011;4701;51.566;6.776;2022-07-09T09:14:50;3.87;;;1.90;;
9324;SDS011;4701;51.566;6.776;2022-07-09T09:16:52;2.00;;;1.80;;
9324;SDS011;4701;51.566;6.776;2022-07-09T09:18:54;4.67;;;2.03;;
9324;SDS011;4701;51.566;6.776;2022-07-09T09:21:01;5.07;;;1.80;;
9324;SDS011;4701;51.566;6.776;2022-07-09T09:23:04;1.77;;;1.27;;
9324;SDS011;4701;51.566;6.776;2022-07-09T09:25:15;1.53;;;1.27;;
9324;SDS011;4701;51.566;6.776;2022-07-09T09:27:26;2.53;;;1.97;;
9324;SDS011;4701;51.566;6.776;2022-07-09T09:29:29;4.77;;;2.10;;
9324;SDS011;4701;51.566;6.776;2022-07-09T09:31:31;3.23;;;2.17;;
9324;SDS011;4701;51.566;6.776;2022-07-09T09:33:34;4.27;;;2.40;;
9324;SDS011;4701;51.566;6.776;2022-07-09T09:35:36;2.93;;;2.10;;
9324;SDS011;4701;51.566;6.776;2022-07-09T09:37:44;5.63;;;4.73;;
9324;SDS011;4701;51.566;6.776;2022-07-09T09:39:49;2.33;;;2.00;;
9324;SDS011;4701;51.566;6.776;2022-07-09T09:41:53;3.30;;;2.40;;
9324;SDS011;4701;51.566;6.776;2022-07-09T09:43:58;2.43;;;2.23;;
9324;SDS011;4701;51.566;6.776;2022-07-09T09:46:03;2.27;;;2.07;;
9324;SDS011;4701;51.566;6.776;2022-07-09T09:48:07;4.53;;;2.20;;
9324;SDS011;4701;51.566;6.776;2022-07-09T09:50:09;2.77;;;2.17;;
9324;SDS011;4701;51.566;6.776;2022-07-09T09:52:13;5.70;;;1.87;;
9324;SDS011;4701;51.566;6.776;2022-07-09T09:54:18;4.63;;;2.20;;
9324;SDS011;4701;51.566;6.776;2022-07-09T09:56:20;2.87;;;1.80;;
9324;SDS011;4701;51.566;6.776;2022-07-09T09:58:24;1.97;;;1.63;;
9324;SDS011;4701;51.566;6.776;2022-07-09T10:00:26;2.47;;;2.10;;
9324;SDS011;4701;51.566;6.776;2022-07-09T10:02:29;2.80;;;1.80;;
9324;SDS011;4701;51.566;6.776;2022-07-09T10:04:31;2.17;;;1.60;;
9324;SDS011;4701;51.566;6.776;2022-07-09T10:06:33;3.27;;;1.80;;
9324;SDS011;4701;51.566;6.776;2022-07-09T10:08:35;2.57;;;1.83;;
9324;SDS011;4701;51.566;6.776;2022-07-09T10:10:37;3.03;;;1.37;;
9324;SDS011;4701;51.566;6.776;2022-07-09T10:12:39;1.50;;;1.40;;
9324;SDS011;4701;51.566;6.776;2022-07-09T10:14:43;2.22;;;1.15;;
9324;SDS011;4701;51.566;6.776;2022-07-09T10:16:45;2.83;;;1.20;;
9324;SDS011;4701;51.566;6.776;2022-07-09T10:18:50;2.67;;;1.40;;
9324;SDS011;4701;51.566;6.776;2022-07-09T10:20:54;2.15;;;1.20;;
9324;SDS011;4701;51.566;6.776;2022-07-09T10:22:57;1.33;;;1.00;;
9324;SDS011;4701;51.566;6.776;2022-07-09T10:25:00;3.70;;;1.33;;
9324;SDS011;4701;51.566;6.776;2022-07-09T10:27:02;2.63;;;1.20;;
9324;SDS011;4701;51.566;6.776;2022-07-09T10:29:17;1.23;;;1.10;;
9324;SDS011;4701;51.566;6.776;2022-07-09T10:31:21;1.60;;;1.33;;
9324;SDS011;4701;51.566;6.776;2022-07-09T10:33:32;1.83;;;1.37;;
9324;SDS011;4701;51.566;6.776;2022-07-09T10:35:42;1.87;;;1.30;;
9324;SDS011;4701;51.566;6.776;2022-07-09T10:37:45;1.43;;;1.20;;
9324;SDS011;4701;51.566;6.776;2022-07-09T10:39:53;1.60;;;1.50;;
9324;SDS011;4701;51.566;6.776;2022-07-09T10:41:59;1.40;;;1.10;;
9324;SDS011;4701;51.566;6.776;2022-07-09T10:44:02;1.60;;;1.30;;
9324;SDS011;4701;51.566;6.776;2022-07-09T10:46:09;3.00;;;1.30;;
9324;SDS011;4701;51.566;6.776;2022-07-09T10:48:13;1.50;;;1.30;;
9324;SDS011;4701;51.566;6.776;2022-07-09T10:50:16;3.15;;;1.45;;
9324;SDS011;4701;51.566;6.776;2022-07-09T10:52:21;1.48;;;1.38;;
9324;SDS011;4701;51.566;6.776;2022-07-09T10:54:31;1.83;;;1.40;;
9324;SDS011;4701;51.566;6.776;2022-07-09T10:56:33;2.45;;;1.27;;
9324;SDS011;4701;51.566;6.776;2022-07-09T10:58:37;2.05;;;1.30;;
9324;SDS011;4701;51.566;6.776;2022-07-09T11:00:39;3.50;;;1.48;;
9324;SDS011;4701;51.566;6.776;2022-07-09T11:02:50;1.75;;;1.40;;
9324;SDS011;4701;51.566;6.776;2022-07-09T11:04:54;1.70;;;1.40;;
9324;SDS011;4701;51.566;6.776;2022-07-09T11:06:59;1.67;;;1.42;;
9324;SDS011;4701;51.566;6.776;2022-07-09T11:09:10;1.48;;;1.33;;
9324;SDS011;4701;51.566;6.776;2022-07-09T11:11:19;3.13;;;1.80;;
9324;SDS011;4701;51.566;6.776;2022-07-09T11:13:22;2.77;;;1.67;;
9324;SDS011;4701;51.566;6.776;2022-07-09T11:15:25;2.22;;;1.52;;
9324;SDS011;4701;51.566;6.776;2022-07-09T11:17:28;2.93;;;1.60;;
9324;SDS011;4701;51.566;6.776;2022-07-09T11:19:30;4.70;;;1.77;;
9324;SDS011;4701;51.566;6.776;2022-07-09T11:21:33;3.70;;;1.80;;
9324;SDS011;4701;51.566;6.776;2022-07-09T11:23:35;2.57;;;1.60;;
9324;SDS011;4701;51.566;6.776;2022-07-09T11:25:37;3.00;;;1.60;;
9324;SDS011;4701;51.566;6.776;2022-07-09T11:27:40;2.13;;;1.33;;
9324;SDS011;4701;51.566;6.776;2022-07-09T11:29:45;2.57;;;1.57;;
9324;SDS011;4701;51.566;6.776;2022-07-09T11:31:49;3.57;;;2.57;;
9324;SDS011;4701;51.566;6.776;2022-07-09T11:33:51;2.60;;;2.30;;
9324;SDS011;4701;51.566;6.776;2022-07-09T11:36:11;4.90;;;2.13;;
9324;SDS011;4701;51.566;6.776;2022-07-09T11:38:14;2.70;;;2.50;;
9324;SDS011;4701;51.566;6.776;2022-07-09T11:40:16;3.40;;;2.60;;
9324;SDS011;4701;51.566;6.776;2022-07-09T11:42:18;4.63;;;2.60;;
9324;SDS011;4701;51.566;6.776;2022-07-09T11:44:22;3.20;;;2.50;;
9324;SDS011;4701;51.566;6.776;2022-07-09T11:46:25;5.80;;;3.00;;
9324;SDS011;4701;51.566;6.776;2022-07-09T11:48:27;4.57;;;3.60;;
9324;SDS011;4701;51.566;6.776;2022-07-09T11:50:28;5.00;;;3.53;;
9324;SDS011;4701;51.566;6.776;2022-07-09T11:52:30;5.53;;;3.37;;
9324;SDS011;4701;51.566;6.776;2022-07-09T11:54:34;4.67;;;3.50;;
9324;SDS011;4701;51.566;6.776;2022-07-09T11:56:39;4.90;;;3.90;;
9324;SDS011;4701;51.566;6.776;2022-07-09T11:58:48;5.50;;;4.40;;
9324;SDS011;4701;51.566;6.776;2022-07-09T12:00:50;5.60;;;5.10;;
9324;SDS011;4701;51.566;6.776;2022-07-09T12:02:52;5.57;;;5.07;;
9324;SDS011;4701;51.566;6.776;2022-07-09T12:04:54;6.70;;;5.23;;
9324;SDS011;4701;51.566;6.776;2022-07-09T12:06:56;8.87;;;5.43;;
9324;SDS011;4701;51.566;6.776;2022-07-09T12:08:59;5.67;;;5.10;;
9324;SDS011;4701;51.566;6.776;2022-07-09T12:11:03;6.43;;;5.80;;
9324;SDS011;4701;51.566;6.776;2022-07-09T12:13:05;6.73;;;6.03;;
9324;SDS011;4701;51.566;6.776;2022-07-09T12:15:09;7.50;;;6.67;;
9324;SDS011;4701;51.566;6.776;2022-07-09T12:47:31;20.47;;;18.37;;
9324;SDS011;4701;51.566;6.776;2022-07-09T12:49:33;19.70;;;17.70;;
9324;SDS011;4701;51.566;6.776;2022-07-09T12:51:35;22.10;;;19.77;;
9324;SDS011;4701;51.566;6.776;2022-07-09T12:53:37;21.27;;;19.17;;
9324;SDS011;4701;51.566;6.776;2022-07-09T12:55:38;17.57;;;15.73;;
9324;SDS011;4701;51.566;6.776;2022-07-09T12:57:40;16.73;;;15.20;;
9324;SDS011;4701;51.566;6.776;2022-07-09T12:59:42;14.93;;;13.40;;
9324;SDS011;4701;51.566;6.776;2022-07-09T13:01:43;15.67;;;13.80;;
9324;SDS011;4701;51.566;6.776;2022-07-09T13:03:47;14.17;;;12.77;;
9324;SDS011;4701;51.566;6.776;2022-07-09T13:05:50;14.47;;;13.07;;
9324;SDS011;4701;51.566;6.776;2022-07-09T13:07:56;15.10;;;13.80;;
9324;SDS011;4701;51.566;6.776;2022-07-09T13:09:57;14.93;;;13.63;;
9324;SDS011;4701;51.566;6.776;2022-07-09T13:11:59;14.60;;;12.53;;
9324;SDS011;4701;51.566;6.776;2022-07-09T13:14:01;12.00;;;10.60;;
9324;SDS011;4701;51.566;6.776;2022-07-09T13:16:03;11.77;;;10.17;;
9324;SDS011;4701;51.566;6.776;2022-07-09T13:18:05;10.73;;;9.73;;
9324;SDS011;4701;51.566;6.776;2022-07-09T13:20:11;10.30;;;9.20;;
9324;SDS011;4701;51.566;6.776;2022-07-09T13:22:13;10.77;;;8.77;;
9324;SDS011;4701;51.566;6.776;2022-07-09T13:24:15;9.85;;;8.82;;
9324;SDS011;4701;51.566;6.776;2022-07-09T13:26:17;10.02;;;7.97;;
9324;SDS011;4701;51.566;6.776;2022-07-09T13:28:19;9.07;;;7.03;;
9324;SDS011;4701;51.566;6.776;2022-07-09T13:30:21;8.27;;;6.90;;
9324;SDS011;4701;51.566;6.776;2022-07-09T13:32:22;6.90;;;6.30;;
9324;SDS011;4701;51.566;6.776;2022-07-09T13:34:24;9.60;;;7.13;;
9324;SDS011;4701;51.566;6.776;2022-07-09T13:36:28;5.65;;;4.30;;
9324;SDS011;4701;51.566;6.776;2022-07-09T13:38:30;6.22;;;3.58;;
9324;SDS011;4701;51.566;6.776;2022-07-09T13:40:32;3.67;;;3.25;;
9324;SDS011;4701;51.566;6.776;2022-07-09T13:42:33;2.40;;;2.20;;
9324;SDS011;4701;51.566;6.776;2022-07-09T13:44:35;3.83;;;2.10;;
9324;SDS011;4701;51.566;6.776;2022-07-09T13:46:37;3.00;;;1.85;;
9324;SDS011;4701;51.566;6.776;2022-07-09T13:48:39;2.15;;;1.80;;
9324;SDS011;4701;51.566;6.776;2022-07-09T13:50:40;3.97;;;1.80;;
9324;SDS011;4701;51.566;6.776;2022-07-09T13:52:43;4.43;;;2.00;;
9324;SDS011;4701;51.566;6.776;2022-07-09T13:54:45;3.33;;;2.17;;
9324;SDS011;4701;51.566;6.776;2022-07-09T13:56:47;1.98;;;1.52;;
9324;SDS011;4701;51.566;6.776;2022-07-09T13:58:48;3.33;;;1.75;;
9324;SDS011;4701;51.566;6.776;2022-07-09T14:00:50;1.48;;;1.10;;
9324;SDS011;4701;51.566;6.776;2022-07-09T14:02:52;2.70;;;1.35;;
9324;SDS011;4701;51.566;6.776;2022-07-09T14:04:54;2.28;;;1.30;;
9324;SDS011;4701;51.566;6.776;2022-07-09T14:06:57;2.47;;;1.40;;
9324;SDS011;4701;51.566;6.776;2022-07-09T14:09:00;2.80;;;1.25;;
9324;SDS011;4701;51.566;6.776;2022-07-09T14:11:02;4.25;;;1.70;;
9324;SDS011;4701;51.566;6.776;2022-07-09T14:13:03;5.35;;;1.50;;
9324;SDS011;4701;51.566;6.776;2022-07-09T14:15:05;1.77;;;1.33;;
9324;SDS011;4701;51.566;6.776;2022-07-09T14:17:08;1.60;;;1.35;;
9324;SDS011;4701;51.566;6.776;2022-07-09T14:19:11;1.08;;;1.00;;
9324;SDS011;4701;51.566;6.776;2022-07-09T14:21:13;6.88;;;1.42;;
9324;SDS011;4701;51.566;6.776;2022-07-09T14:23:15;1.77;;;1.13;;
9324;SDS011;4701;51.566;6.776;2022-07-09T14:25:18;1.55;;;1.17;;
9324;SDS011;4701;51.566;6.776;2022-07-09T14:27:21;1.40;;;1.13;;
9324;SDS011;4701;51.566;6.776;2022-07-09T14:29:23;2.55;;;1.20;;
9324;SDS011;4701;51.566;6.776;2022-07-09T14:31:24;2.85;;;1.30;;
9324;SDS011;4701;51.566;6.776;2022-07-09T14:33:26;2.10;;;1.33;;
9324;SDS011;4701;51.566;6.776;2022-07-09T14:35:28;2.20;;;1.42;;
9324;SDS011;4701;51.566;6.776;2022-07-09T14:37:30;1.73;;;1.25;;
9324;SDS011;4701;51.566;6.776;2022-07-09T14:39:32;2.80;;;1.27;;
9324;SDS011;4701;51.566;6.776;2022-07-09T14:41:35;3.05;;;1.15;;
9324;SDS011;4701;51.566;6.776;2022-07-09T14:43:37;1.35;;;1.17;;
9324;SDS011;4701;51.566;6.776;2022-07-09T14:45:40;2.85;;;1.20;;
9324;SDS011;4701;51.566;6.776;2022-07-09T14:47:42;2.05;;;1.20;;
9324;SDS011;4701;51.566;6.776;2022-07-09T14:49:44;1.05;;;0.98;;
9324;SDS011;4701;51.566;6.776;2022-07-09T14:51:46;2.97;;;1.10;;
9324;SDS011;4701;51.566;6.776;2022-07-09T14:53:47;4.55;;;1.35;;
9324;SDS011;4701;51.566;6.776;2022-07-09T14:55:49;6.38;;;1.10;;
9324;SDS011;4701;51.566;6.776;2022-07-09T14:57:52;2.17;;;1.15;;
9324;SDS011;4701;51.566;6.776;2022-07-09T14:59:54;2.78;;;1.40;;
9324;SDS011;4701;51.566;6.776;2022-07-09T15:01:56;3.42;;;1.27;;
9324;SDS011;4701;51.566;6.776;2022-07-09T15:03:57;4.82;;;1.20;;
9324;SDS011;4701;51.566;6.776;2022-07-09T15:05:59;1.45;;;1.02;;
9324;SDS011;4701;51.566;6.776;2022-07-09T15:08:01;4.13;;;1.42;;
9324;SDS011;4701;51.566;6.776;2022-07-09T15:10:03;1.95;;;1.20;;
9324;SDS011;4701;51.566;6.776;2022-07-09T15:12:06;1.83;;;1.30;;
9324;SDS011;4701;51.566;6.776;2022-07-09T15:14:09;2.92;;;1.15;;
9324;SDS011;4701;51.566;6.776;2022-07-09T15:16:11;1.50;;;1.10;;
9324;SDS011;4701;51.566;6.776;2022-07-09T15:18:13;4.75;;;1.23;;
9324;SDS011;4701;51.566;6.776;2022-07-09T15:20:15;1.15;;;1.08;;
9324;SDS011;4701;51.566;6.776;2022-07-09T15:22:16;5.13;;;1.17;;
9324;SDS011;4701;51.566;6.776;2022-07-09T15:24:18;2.28;;;1.02;;
9324;SDS011;4701;51.566;6.776;2022-07-09T15:26:20;2.42;;;1.15;;
9324;SDS011;4701;51.566;6.776;2022-07-09T15:28:22;2.35;;;1.00;;
9324;SDS011;4701;51.566;6.776;2022-07-09T15:30:25;1.98;;;1.05;;
9324;SDS011;4701;51.566;6.776;2022-07-09T15:32:27;2.70;;;1.13;;
9324;SDS011;4701;51.566;6.776;2022-07-09T15:34:29;1.52;;;0.90;;
9324;SDS011;4701;51.566;6.776;2022-07-09T15:36:31;1.92;;;1.17;;
9324;SDS011;4701;51.566;6.776;2022-07-09T15:38:33;2.50;;;1.23;;
9324;SDS011;4701;51.566;6.776;2022-07-09T15:40:34;2.28;;;1.15;;
9324;SDS011;4701;51.566;6.776;2022-07-09T15:42:36;1.92;;;0.93;;
9324;SDS011;4701;51.566;6.776;2022-07-09T15:44:38;1.95;;;1.00;;
9324;SDS011;4701;51.566;6.776;2022-07-09T15:46:41;3.38;;;1.75;;
9324;SDS011;4701;51.566;6.776;2022-07-09T15:48:44;2.45;;;1.23;;
9324;SDS011;4701;51.566;6.776;2022-07-09T15:50:46;3.35;;;1.10;;
9324;SDS011;4701;51.566;6.776;2022-07-09T15:52:48;2.17;;;1.20;;
9324;SDS011;4701;51.566;6.776;2022-07-09T15:54:49;4.00;;;1.65;;
9324;SDS011;4701;51.566;6.776;2022-07-09T15:56:51;3.95;;;3.10;;
9324;SDS011;4701;51.566;6.776;2022-07-09T15:58:53;5.20;;;1.63;;
9324;SDS011;4701;51.566;6.776;2022-07-09T16:00:55;4.95;;;1.58;;
9324;SDS011;4701;51.566;6.776;2022-07-09T16:02:58;3.10;;;1.20;;
9324;SDS011;4701;51.566;6.776;2022-07-09T16:05:02;1.83;;;1.20;;
9324;SDS011;4701;51.566;6.776;2022-07-09T16:07:04;0.90;;;0.70;;
9324;SDS011;4701;51.566;6.776;2022-07-09T16:09:05;2.00;;;1.00;;
9324;SDS011;4701;51.566;6.776;2022-07-09T16:11:07;2.13;;;0.98;;
9324;SDS011;4701;51.566;6.776;2022-07-09T16:13:26;2.33;;;1.70;;
9324;SDS011;4701;51.566;6.776;2022-07-09T16:15:28;6.45;;;1.52;;
9324;SDS011;4701;51.566;6.776;2022-07-09T16:17:30;6.82;;;3.08;;
9324;SDS011;4701;51.566;6.776;2022-07-09T16:19:36;3.22;;;1.67;;
9324;SDS011;4701;51.566;6.776;2022-07-09T16:21:38;3.50;;;1.33;;
9324;SDS011;4701;51.566;6.776;2022-07-09T16:23:40;2.47;;;1.33;;
9324;SDS011;4701;51.566;6.776;2022-07-09T16:25:42;3.15;;;2.00;;
9324;SDS011;4701;51.566;6.776;2022-07-09T16:27:43;1.90;;;1.35;;
9324;SDS011;4701;51.566;6.776;2022-07-09T16:29:46;4.13;;;1.50;;
9324;SDS011;4701;51.566;6.776;2022-07-09T16:31:48;4.13;;;1.52;;
9324;SDS011;4701;51.566;6.776;2022-07-09T16:33:50;3.75;;;1.58;;
9324;SDS011;4701;51.566;6.776;2022-07-09T16:35:53;3.55;;;1.83;;
9324;SDS011;4701;51.566;6.776;2022-07-09T16:37:55;4.53;;;1.77;;
9324;SDS011;4701;51.566;6.776;2022-07-09T16:39:57;3.17;;;1.50;;
9324;SDS011;4701;51.566;6.776;2022-07-09T16:41:59;2.58;;;1.42;;
9324;SDS011;4701;51.566;6.776;2022-07-09T16:44:01;3.40;;;1.77;;
9324;SDS011;4701;51.566;6.776;2022-07-09T16:46:03;3.72;;;1.73;;
9324;SDS011;4701;51.566;6.776;2022-07-09T16:48:11;6.13;;;1.73;;
9324;SDS011;4701;51.566;6.776;2022-07-09T16:50:15;6.00;;;1.80;;
9324;SDS011;4701;51.566;6.776;2022-07-09T16:52:18;5.78;;;1.58;;
9324;SDS011;4701;51.566;6.776;2022-07-09T16:54:21;2.92;;;1.60;;
9324;SDS011;4701;51.566;6.776;2022-07-09T16:56:23;4.25;;;1.48;;
9324;SDS011;4701;51.566;6.776;2022-07-09T16:58:25;3.70;;;1.40;;
9324;SDS011;4701;51.566;6.776;2022-07-09T17:00:26;4.23;;;1.60;;
9324;SDS011;4701;51.566;6.776;2022-07-09T17:02:30;4.00;;;1.53;;
9324;SDS011;4701;51.566;6.776;2022-07-09T17:04:32;5.60;;;1.70;;
9324;SDS011;4701;51.566;6.776;2022-07-09T17:06:36;4.77;;;1.60;;
9324;SDS011;4701;51.566;6.776;2022-07-09T17:08:39;7.60;;;1.70;;
9324;SDS011;4701;51.566;6.776;2022-07-09T17:10:42;3.80;;;1.60;;
9324;SDS011;4701;51.566;6.776;2022-07-09T17:12:44;3.13;;;1.40;;
9324;SDS011;4701;51.566;6.776;2022-07-09T17:14:46;4.83;;;1.33;;
9324;SDS011;4701;51.566;6.776;2022-07-09T17:16:47;4.27;;;1.40;;
9324;SDS011;4701;51.566;6.776;2022-07-09T17:18:49;3.43;;;1.33;;
9324;SDS011;4701;51.566;6.776;2022-07-09T17:20:51;4.15;;;1.17;;
9324;SDS011;4701;51.566;6.776;2022-07-09T17:22:53;6.93;;;1.58;;
9324;SDS011;4701;51.566;6.776;2022-07-09T17:24:57;2.15;;;1.40;;
9324;SDS011;4701;51.566;6.776;2022-07-09T17:26:58;4.85;;;1.40;;
9324;SDS011;4701;51.566;6.776;2022-07-09T17:29:00;3.45;;;1.40;;
9324;SDS011;4701;51.566;6.776;2022-07-09T17:31:03;4.60;;;1.40;;
9324;SDS011;4701;51.566;6.776;2022-07-09T17:33:05;3.90;;;1.40;;
9324;SDS011;4701;51.566;6.776;2022-07-09T17:35:12;5.17;;;1.40;;
9324;SDS011;4701;51.566;6.776;2022-07-09T17:37:15;3.83;;;1.70;;
9324;SDS011;4701;51.566;6.776;2022-07-09T17:39:23;4.93;;;1.30;;
9324;SDS011;4701;51.566;6.776;2022-07-09T17:41:28;4.13;;;1.30;;
9324;SDS011;4701;51.566;6.776;2022-07-09T17:43:31;4.57;;;1.33;;
9324;SDS011;4701;51.566;6.776;2022-07-09T17:45:33;3.53;;;1.50;;
9324;SDS011;4701;51.566;6.776;2022-07-09T17:47:39;3.10;;;1.60;;
9324;SDS011;4701;51.566;6.776;2022-07-09T17:49:57;4.17;;;1.20;;
9324;SDS011;4701;51.566;6.776;2022-07-09T17:52:07;3.37;;;1.40;;
9324;SDS011;4701;51.566;6.776;2022-07-09T17:54:15;3.60;;;1.30;;
9324;SDS011;4701;51.566;6.776;2022-07-09T17:56:23;2.77;;;1.60;;
9324;SDS011;4701;51.566;6.776;2022-07-09T17:58:35;4.20;;;1.30;;
9324;SDS011;4701;51.566;6.776;2022-07-09T18:00:47;4.77;;;1.57;;
9324;SDS011;4701;51.566;6.776;2022-07-09T18:02:57;6.10;;;1.30;;
9324;SDS011;4701;51.566;6.776;2022-07-09T18:05:08;3.67;;;1.30;;
9324;SDS011;4701;51.566;6.776;2022-07-09T18:07:15;9.27;;;3.90;;
9324;SDS011;4701;51.566;6.776;2022-07-09T18:09:23;3.80;;;1.60;;
9324;SDS011;4701;51.566;6.776;2022-07-09T18:11:31;3.00;;;1.63;;